createdAt,value
2022-12-17T00:00:12.227Z,55.67
2022-12-17T00:02:57.409Z,54.35
2022-12-17T00:05:42.530Z,51.63
2022-12-17T00:08:27.961Z,52.20
2022-12-17T00:11:16.976Z,57.08
2022-12-17T00:14:02.694Z,51.28
2022-12-17T00:16:47.998Z,56.63
2022-12-17T00:19:53.374Z,54.67
2022-12-17T00:22:41.697Z,57.22
2022-12-17T00:25:27.714Z,52.75
2022-12-17T00:28:13.191Z,55.92
2022-12-17T00:30:58.778Z,54.97
2022-12-17T00:33:44.038Z,53.45
2022-12-17T00:36:29.330Z,50.75
2022-12-17T00:39:14.922Z,55.22
2022-12-17T00:42:00.446Z,53.22
2022-12-17T00:44:46.038Z,55.42
2022-12-17T00:47:31.474Z,56.00
2022-12-17T00:50:16.942Z,57.35
2022-12-17T00:53:02.138Z,58.70
2022-12-17T00:55:47.756Z,54.70
2022-12-17T00:58:33.344Z,52.35
2022-12-17T01:01:20.034Z,54.92
2022-12-17T01:04:05.408Z,57.15
2022-12-17T01:06:50.901Z,56.80
2022-12-17T01:09:36.337Z,60.60
2022-12-17T01:12:22.178Z,52.15
2022-12-17T01:15:07.567Z,52.03
2022-12-17T01:17:53.030Z,55.13
2022-12-17T01:20:41.878Z,52.75
2022-12-17T01:23:27.811Z,53.60
2022-12-17T01:26:15.565Z,53.90
2022-12-17T01:29:01.574Z,54.65
2022-12-17T01:31:47.004Z,52.28
2022-12-17T01:34:32.305Z,49.75
2022-12-17T01:37:17.379Z,56.80
2022-12-17T01:40:03.345Z,57.00
2022-12-17T01:43:03.312Z,56.25
2022-12-17T01:46:01.528Z,50.90
2022-12-17T01:49:06.640Z,54.97
2022-12-17T01:51:54.628Z,49.10
2022-12-17T01:54:41.147Z,57.17
2022-12-17T01:57:29.273Z,56.03
2022-12-17T02:00:26.190Z,53.53
2022-12-17T02:03:11.767Z,57.00
2022-12-17T02:06:21.715Z,53.70
2022-12-17T02:09:44.361Z,56.80
2022-12-17T02:12:49.226Z,60.33
2022-12-17T02:15:45.335Z,58.35
2022-12-17T02:18:52.399Z,56.60
2022-12-17T02:21:39.767Z,57.30
2022-12-17T02:24:49.375Z,57.05
2022-12-17T02:27:36.327Z,63.28
2022-12-17T02:30:26.571Z,57.00
2022-12-17T02:33:13.353Z,55.45
2022-12-17T02:36:08.263Z,61.67
2022-12-17T02:38:53.787Z,57.90
2022-12-17T02:41:49.013Z,57.22
2022-12-17T02:44:40.480Z,60.60
2022-12-17T02:47:28.993Z,55.58
2022-12-17T02:50:14.902Z,55.65
2022-12-17T02:53:06.341Z,61.75
2022-12-17T02:55:54.159Z,57.42
2022-12-17T02:58:39.884Z,53.13
2022-12-17T03:01:26.202Z,54.85
2022-12-17T03:04:11.578Z,52.13
2022-12-17T03:06:57.390Z,53.63
2022-12-17T03:09:42.971Z,56.08
2022-12-17T03:12:28.210Z,58.08
2022-12-17T03:15:13.555Z,51.40
2022-12-17T03:17:58.670Z,57.05
2022-12-17T03:20:44.139Z,49.92
2022-12-17T03:23:31.163Z,53.40
2022-12-17T03:26:19.198Z,51.88
2022-12-17T03:29:05.290Z,56.25
2022-12-17T03:31:51.383Z,55.83
2022-12-17T03:34:36.931Z,55.88
2022-12-17T03:37:24.010Z,53.03
2022-12-17T03:40:09.378Z,51.45
2022-12-17T03:42:54.991Z,49.30
2022-12-17T03:45:40.439Z,56.03
2022-12-17T03:48:29.734Z,52.58
2022-12-17T03:51:16.341Z,53.88
2022-12-17T03:54:02.269Z,50.47
2022-12-17T03:56:49.702Z,53.50
2022-12-17T03:59:35.662Z,54.25
2022-12-17T04:02:21.172Z,50.08
2022-12-17T04:05:06.951Z,52.08
2022-12-17T04:07:52.570Z,53.58
2022-12-17T04:10:37.921Z,55.10
2022-12-17T04:13:23.956Z,52.92
2022-12-17T04:16:09.459Z,54.33
2022-12-17T04:18:57.927Z,58.70
2022-12-17T04:21:43.467Z,53.95
2022-12-17T04:24:29.022Z,54.40
2022-12-17T04:27:14.637Z,50.53
2022-12-17T04:30:00.204Z,55.35
2022-12-17T04:32:45.687Z,55.72
2022-12-17T04:35:30.962Z,58.03
2022-12-17T04:38:16.317Z,59.47
2022-12-17T04:41:01.846Z,57.63
2022-12-17T04:43:47.322Z,56.03
2022-12-17T04:46:32.870Z,55.72
2022-12-17T04:49:18.134Z,54.67
2022-12-17T04:52:03.490Z,56.88
2022-12-17T04:54:48.882Z,57.53
2022-12-17T04:57:34.353Z,58.80
2022-12-17T05:00:19.869Z,57.83
2022-12-17T05:03:05.371Z,57.03
2022-12-17T05:05:50.776Z,56.72
2022-12-17T05:08:41.220Z,58.50
2022-12-17T05:11:46.832Z,54.70
2022-12-17T05:14:33.535Z,58.83
2022-12-17T05:17:18.920Z,54.03
2022-12-17T05:20:05.193Z,57.20
2022-12-17T05:22:53.655Z,54.35
2022-12-17T05:25:38.905Z,56.45
2022-12-17T05:28:24.381Z,56.83
2022-12-17T05:31:14.545Z,57.97
2022-12-17T05:34:00.213Z,56.58
2022-12-17T05:36:45.775Z,55.78
2022-12-17T05:39:31.410Z,61.28
2022-12-17T05:42:16.893Z,58.50
2022-12-17T05:45:02.419Z,55.88
2022-12-17T05:47:47.971Z,57.15
2022-12-17T05:50:34.110Z,54.45
2022-12-17T05:53:22.644Z,57.38
2022-12-17T05:56:11.030Z,60.13
2022-12-17T05:58:57.996Z,58.35
2022-12-17T06:01:43.474Z,57.60
2022-12-17T06:04:29.658Z,55.25
2022-12-17T06:07:15.245Z,53.70
2022-12-17T06:10:00.702Z,54.35
2022-12-17T06:12:46.060Z,57.17
2022-12-17T06:15:31.650Z,56.33
2022-12-17T06:18:17.622Z,57.53
2022-12-17T06:21:03.868Z,55.70
2022-12-17T06:23:49.400Z,56.92
2022-12-17T06:26:39.287Z,54.85
2022-12-17T06:29:24.713Z,55.80
2022-12-17T06:32:10.232Z,57.67
2022-12-17T06:34:55.760Z,57.67
2022-12-17T06:37:41.390Z,56.17
2022-12-17T06:40:28.149Z,54.53
2022-12-17T06:43:15.088Z,55.63
2022-12-17T06:46:01.093Z,58.95
2022-12-17T06:48:46.585Z,57.95
2022-12-17T06:51:32.084Z,61.05
2022-12-17T06:54:17.621Z,52.30
2022-12-17T06:57:02.961Z,61.10
2022-12-17T06:59:48.582Z,52.72
2022-12-17T07:02:34.234Z,60.53
2022-12-17T07:05:19.588Z,57.65
2022-12-17T07:08:05.178Z,55.80
2022-12-17T07:10:50.655Z,51.63
2022-12-17T07:13:36.561Z,56.55
2022-12-17T07:16:22.124Z,55.95
2022-12-17T07:19:07.443Z,54.90
2022-12-17T07:21:53.060Z,57.22
2022-12-17T07:24:38.251Z,59.40
2022-12-17T07:27:23.558Z,60.20
2022-12-17T07:30:09.044Z,55.00
2022-12-17T07:32:54.507Z,54.50
2022-12-17T07:35:40.213Z,57.55
2022-12-17T07:38:25.832Z,55.97
2022-12-17T07:41:14.219Z,58.28
2022-12-17T07:43:59.764Z,59.47
2022-12-17T07:46:45.170Z,58.95
2022-12-17T07:49:30.703Z,59.95
2022-12-17T07:52:15.941Z,61.67
2022-12-17T07:55:04.114Z,57.40
2022-12-17T07:57:49.621Z,62.88
2022-12-17T08:00:34.787Z,63.40
2022-12-17T08:03:20.907Z,67.97
2022-12-17T08:06:06.094Z,68.22
2022-12-17T08:08:51.651Z,68.07
2022-12-17T08:11:37.269Z,67.57
2022-12-17T08:14:22.735Z,67.32
2022-12-17T08:17:08.330Z,69.50
2022-12-17T08:19:53.705Z,73.13
2022-12-17T08:22:39.183Z,74.57
2022-12-17T08:25:24.922Z,73.95
2022-12-17T08:28:48.946Z,71.05
2022-12-17T08:31:24.358Z,69.03
2022-12-17T08:34:10.087Z,71.75
2022-12-17T08:36:55.434Z,71.25
2022-12-17T08:39:40.647Z,70.45
2022-12-17T08:42:25.933Z,69.70
2022-12-17T08:45:11.402Z,71.13
2022-12-17T08:48:02.068Z,68.45
2022-12-17T08:50:49.401Z,72.50
2022-12-17T08:53:35.433Z,75.47
2022-12-17T08:56:21.130Z,67.13
2022-12-17T08:59:06.665Z,62.90
2022-12-17T09:01:52.360Z,70.15
2022-12-17T09:04:37.931Z,60.95
2022-12-17T09:07:23.602Z,66.18
2022-12-17T09:10:09.162Z,66.75
2022-12-17T09:12:55.906Z,64.88
2022-12-17T09:15:43.131Z,67.75
2022-12-17T09:18:28.605Z,68.47
2022-12-17T09:21:15.075Z,63.97
2022-12-17T09:24:00.727Z,64.55
2022-12-17T09:26:46.212Z,65.90
2022-12-17T09:29:31.834Z,61.50
2022-12-17T09:32:17.948Z,64.10
2022-12-17T09:35:05.062Z,69.20
2022-12-17T09:37:50.758Z,63.75
2022-12-17T09:40:43.430Z,60.92
2022-12-17T09:44:15.830Z,62.03
2022-12-17T09:47:53.515Z,66.80
2022-12-17T09:50:39.044Z,67.43
2022-12-17T09:53:50.294Z,65.43
2022-12-17T09:56:39.763Z,65.10
2022-12-17T09:59:25.160Z,61.25
2022-12-17T10:02:10.638Z,71.88
2022-12-17T10:05:00.910Z,66.65
2022-12-17T10:07:54.373Z,65.20
2022-12-17T10:10:51.361Z,59.80
2022-12-17T10:13:42.029Z,64.05
2022-12-17T10:16:58.100Z,59.85
2022-12-17T10:20:00.653Z,64.72
2022-12-17T10:22:46.575Z,61.13
2022-12-17T10:25:41.299Z,65.63
2022-12-17T10:28:33.230Z,66.22
2022-12-17T10:31:20.308Z,66.88
2022-12-17T10:34:06.337Z,63.50
2022-12-17T10:36:51.850Z,61.80
2022-12-17T10:39:44.289Z,64.43
2022-12-17T10:42:56.826Z,64.20
2022-12-17T10:45:49.585Z,59.17
2022-12-17T10:48:47.819Z,69.63
2022-12-17T10:51:50.724Z,67.68
2022-12-17T10:54:49.955Z,62.92
2022-12-17T10:57:57.542Z,63.65
2022-12-17T11:00:57.363Z,65.88
2022-12-17T11:03:51.764Z,67.85
2022-12-17T11:06:53.639Z,63.60
2022-12-17T11:10:09.782Z,65.80
2022-12-17T11:13:15.762Z,72.45
2022-12-17T11:16:09.864Z,64.65
2022-12-17T11:19:27.874Z,63.72
2022-12-17T11:22:41.186Z,69.45
2022-12-17T11:25:54.078Z,65.20
2022-12-17T11:28:46.697Z,67.32
2022-12-17T11:31:48.715Z,68.80
2022-12-17T11:34:59.561Z,70.25
2022-12-17T11:37:58.157Z,66.28
2022-12-17T11:41:01.116Z,68.00
2022-12-17T11:44:20.346Z,64.30
2022-12-17T11:47:28.079Z,60.85
2022-12-17T11:50:47.252Z,72.32
2022-12-17T11:53:59.066Z,64.22
2022-12-17T11:57:02.286Z,68.72
2022-12-17T12:00:12.205Z,79.25
2022-12-17T12:03:24.002Z,68.78
2022-12-17T12:06:17.522Z,69.20
2022-12-17T12:09:25.968Z,65.72
2022-12-17T12:12:42.826Z,72.22
2022-12-17T12:15:44.772Z,69.57
2022-12-17T12:18:42.542Z,72.30
2022-12-17T12:22:12.919Z,69.97
2022-12-17T12:25:34.836Z,72.38
2022-12-17T12:28:55.788Z,65.47
2022-12-17T12:31:58.430Z,69.15
2022-12-17T12:34:50.851Z,66.75
2022-12-17T12:37:39.002Z,68.45
2022-12-17T12:41:00.938Z,62.80
2022-12-17T12:43:51.909Z,65.10
2022-12-17T12:46:58.107Z,65.68
2022-12-17T12:50:15.599Z,69.15
2022-12-17T12:53:01.510Z,72.90
2022-12-17T12:56:01.491Z,72.07
2022-12-17T12:58:51.546Z,68.80
2022-12-17T13:01:58.857Z,66.07
2022-12-17T13:04:55.374Z,70.65
2022-12-17T13:07:28.990Z,72.07
2022-12-17T13:09:58.931Z,64.45
2022-12-17T13:12:39.625Z,66.90
2022-12-17T13:15:06.448Z,69.05
2022-12-17T13:17:55.195Z,68.95
2022-12-17T13:20:33.753Z,67.78
2022-12-17T13:23:09.791Z,68.30
2022-12-17T13:25:37.654Z,65.70
2022-12-17T13:28:05.860Z,65.32
2022-12-17T13:30:39.037Z,68.93
2022-12-17T13:33:23.685Z,64.85
2022-12-17T13:36:17.872Z,69.50
2022-12-17T13:39:26.486Z,68.75
2022-12-17T13:41:58.214Z,71.15
2022-12-17T13:44:45.274Z,68.38
2022-12-17T13:47:33.165Z,68.57
2022-12-17T13:50:33.465Z,68.22
2022-12-17T13:52:52.137Z,65.32
2022-12-17T13:55:26.726Z,70.32
2022-12-17T13:57:55.774Z,67.43
2022-12-17T14:00:28.550Z,65.72
2022-12-17T14:02:55.849Z,64.40
2022-12-17T14:05:33.371Z,66.70
2022-12-17T14:08:03.225Z,65.75
2022-12-17T14:10:30.389Z,60.53
2022-12-17T14:13:12.687Z,68.05
2022-12-17T14:15:48.364Z,70.20
2022-12-17T14:18:20.607Z,67.18
2022-12-17T14:20:52.350Z,68.13
2022-12-17T14:23:25.752Z,66.32
2022-12-17T14:25:52.989Z,68.82
2022-12-17T14:28:24.462Z,69.40
2022-12-17T14:31:25.394Z,69.03
2022-12-17T14:33:45.398Z,68.57
2022-12-17T14:36:23.513Z,63.78
2022-12-17T14:38:58.471Z,62.22
2022-12-17T14:41:46.290Z,64.03
2022-12-17T14:44:31.201Z,65.00
2022-12-17T14:47:24.134Z,65.47
2022-12-17T14:50:12.275Z,72.40
2022-12-17T14:52:50.058Z,73.25
2022-12-17T14:55:26.691Z,73.88
2022-12-17T14:58:12.301Z,68.63
2022-12-17T15:00:50.943Z,72.53
2022-12-17T15:03:32.555Z,70.70
2022-12-17T15:06:05.089Z,60.00
2022-12-17T15:08:47.824Z,63.42
2022-12-17T15:11:21.305Z,59.25
2022-12-17T15:13:53.074Z,69.38
2022-12-17T15:16:23.291Z,61.72
2022-12-17T15:18:50.514Z,58.95
2022-12-17T15:21:18.894Z,67.75
2022-12-17T15:23:46.871Z,60.92
2022-12-17T15:26:15.169Z,62.85
2022-12-17T15:28:43.274Z,63.58
2022-12-17T15:31:13.655Z,64.57
2022-12-17T15:33:41.743Z,62.78
2022-12-17T15:36:12.003Z,62.80
2022-12-17T15:38:39.464Z,63.65
2022-12-17T15:41:26.054Z,64.00
2022-12-17T15:43:52.998Z,68.18
2022-12-17T15:46:19.797Z,62.05
2022-12-17T15:48:50.414Z,64.18
2022-12-17T15:51:19.969Z,65.93
2022-12-17T15:53:48.213Z,63.60
2022-12-17T15:56:25.654Z,67.88
2022-12-17T15:58:53.055Z,64.60
2022-12-17T16:01:20.347Z,67.03
2022-12-17T16:03:47.407Z,65.00
2022-12-17T16:06:14.327Z,65.07
2022-12-17T16:08:41.315Z,67.05
2022-12-17T16:11:10.168Z,62.67
2022-12-17T16:13:38.706Z,58.45
2022-12-17T16:16:07.927Z,60.22
2022-12-17T16:18:38.484Z,61.10
2022-12-17T16:21:08.523Z,63.83
2022-12-17T16:23:36.101Z,64.97
2022-12-17T16:26:05.984Z,64.70
2022-12-17T16:28:36.374Z,63.08
2022-12-17T16:31:11.607Z,61.72
2022-12-17T16:33:41.891Z,64.13
2022-12-17T16:36:12.914Z,73.05
2022-12-17T16:38:49.517Z,70.38
2022-12-17T16:41:18.581Z,62.65
2022-12-17T16:43:45.941Z,67.75
2022-12-17T16:46:41.679Z,64.20
2022-12-17T16:49:18.821Z,64.80
2022-12-17T16:51:52.783Z,66.60
2022-12-17T16:54:26.895Z,65.30
2022-12-17T16:56:55.109Z,64.60
2022-12-17T16:59:23.344Z,72.88
2022-12-17T17:01:51.960Z,65.72
2022-12-17T17:04:23.039Z,61.53
2022-12-17T17:06:54.218Z,63.30
2022-12-17T17:09:23.249Z,71.05
2022-12-17T17:11:52.013Z,67.78
2022-12-17T17:14:19.821Z,67.07
2022-12-17T17:16:46.806Z,65.00
2022-12-17T17:19:15.136Z,70.35
2022-12-17T17:21:48.635Z,71.07
2022-12-17T17:24:21.137Z,67.63
2022-12-17T17:26:50.917Z,65.35
2022-12-17T17:29:18.191Z,70.45
2022-12-17T17:34:32.250Z,66.13
2022-12-17T17:36:59.187Z,63.88
2022-12-17T17:39:27.219Z,71.20
2022-12-17T17:41:54.035Z,67.85
2022-12-17T17:44:20.854Z,64.05
2022-12-17T17:46:47.949Z,64.85
2022-12-17T17:49:15.053Z,63.90
2022-12-17T17:54:31.751Z,68.07
2022-12-17T17:56:58.606Z,66.57
2022-12-17T17:59:32.908Z,63.72
2022-12-17T18:02:01.580Z,60.78
2022-12-17T18:04:29.054Z,66.18
2022-12-17T18:07:24.172Z,68.57
2022-12-17T18:09:42.643Z,66.93
2022-12-17T18:12:27.921Z,68.45
2022-12-17T18:15:13.840Z,69.78
2022-12-17T18:17:41.659Z,67.65
2022-12-17T18:20:10.078Z,75.00
2022-12-17T18:22:37.769Z,68.43
2022-12-17T18:25:05.528Z,67.90
2022-12-17T18:27:32.664Z,74.72
2022-12-17T18:29:59.610Z,74.50
2022-12-17T18:32:26.771Z,72.70
2022-12-17T18:34:53.631Z,73.72
2022-12-17T18:37:20.556Z,72.20
2022-12-17T18:39:48.606Z,68.00
2022-12-17T18:42:33.916Z,72.38
2022-12-17T18:45:01.879Z,70.05
2022-12-17T18:47:32.405Z,69.47
2022-12-17T18:49:59.149Z,69.07
2022-12-17T18:52:25.927Z,69.97
2022-12-17T18:54:52.775Z,72.93
2022-12-17T18:57:19.731Z,76.60
2022-12-17T18:59:46.743Z,67.22
2022-12-17T19:02:14.550Z,72.45
2022-12-17T19:04:42.023Z,71.13
2022-12-17T19:07:09.453Z,75.38
2022-12-17T19:09:36.973Z,71.65
2022-12-17T19:12:07.405Z,87.63
2022-12-17T19:14:35.317Z,87.18
2022-12-17T19:17:02.705Z,85.72
2022-12-17T19:19:29.783Z,90.57
2022-12-17T19:21:59.557Z,75.63
2022-12-17T19:24:26.594Z,77.75
2022-12-17T19:26:53.583Z,73.38
2022-12-17T19:29:22.139Z,74.03
2022-12-17T19:31:49.625Z,81.97
2022-12-17T19:34:18.643Z,74.57
2022-12-17T19:36:47.129Z,77.03
2022-12-17T19:39:17.841Z,74.28
2022-12-17T19:41:45.156Z,78.72
2022-12-17T19:44:15.571Z,83.88
2022-12-17T19:46:43.476Z,76.75
2022-12-17T19:49:15.569Z,76.97
2022-12-17T19:51:44.155Z,82.05
2022-12-17T19:54:14.826Z,76.40
2022-12-17T19:56:44.534Z,76.25
2022-12-17T19:59:12.897Z,75.18
2022-12-17T20:01:46.469Z,75.82
2022-12-17T20:04:15.909Z,74.85
2022-12-17T20:06:43.948Z,73.45
2022-12-17T20:09:10.979Z,71.13
2022-12-17T20:11:38.843Z,69.45
2022-12-17T20:14:20.860Z,80.72
2022-12-17T20:16:55.150Z,72.50
2022-12-17T20:19:30.858Z,72.20
2022-12-17T20:22:04.240Z,77.95
2022-12-17T20:24:32.250Z,70.53
2022-12-17T20:27:00.645Z,78.75
2022-12-17T20:29:28.097Z,70.40
2022-12-17T20:31:55.928Z,75.80
2022-12-17T20:34:24.323Z,80.38
2022-12-17T20:36:54.019Z,74.03
2022-12-17T20:39:26.614Z,75.22
2022-12-17T20:41:55.404Z,77.93
2022-12-17T20:44:22.311Z,76.47
2022-12-17T20:46:49.179Z,77.82
2022-12-17T20:49:16.079Z,85.68
2022-12-17T20:51:43.185Z,83.88
2022-12-17T20:54:11.037Z,91.25
2022-12-17T20:56:40.360Z,80.75
2022-12-17T20:59:13.144Z,75.15
2022-12-17T21:01:40.622Z,70.78
2022-12-17T21:04:07.996Z,68.28
2022-12-17T21:06:44.839Z,73.93
2022-12-17T21:09:13.762Z,78.28
2022-12-17T21:11:41.921Z,78.28
2022-12-17T21:14:15.792Z,85.28
2022-12-17T21:16:43.574Z,83.35
2022-12-17T21:19:16.510Z,79.13
2022-12-17T21:21:43.546Z,81.63
2022-12-17T21:24:11.274Z,73.30
2022-12-17T21:26:41.678Z,77.07
2022-12-17T21:29:10.421Z,71.72
2022-12-17T21:31:49.830Z,71.75
2022-12-17T21:34:25.368Z,68.55
2022-12-17T21:36:52.549Z,68.60
2022-12-17T21:39:20.700Z,66.75
2022-12-17T21:42:07.530Z,73.35
2022-12-17T21:44:35.412Z,64.72
2022-12-17T21:47:02.619Z,64.22
2022-12-17T21:49:29.478Z,68.05
2022-12-17T21:51:59.161Z,66.53
2022-12-17T21:54:26.250Z,71.85
2022-12-17T21:56:53.206Z,65.50
2022-12-17T21:59:20.073Z,65.38
2022-12-17T22:01:46.931Z,72.32
2022-12-17T22:04:13.953Z,71.55
2022-12-17T22:06:44.199Z,75.10
2022-12-17T22:09:29.041Z,70.78
2022-12-17T22:12:26.862Z,67.40
2022-12-17T22:14:53.609Z,66.53
2022-12-17T22:17:21.178Z,70.30
2022-12-17T22:19:48.162Z,68.43
2022-12-17T22:22:14.980Z,67.53
2022-12-17T22:24:41.780Z,73.85
2022-12-17T22:27:09.542Z,70.20
2022-12-17T22:29:55.664Z,72.53
2022-12-17T22:32:41.078Z,68.13
2022-12-17T22:36:15.771Z,69.35
2022-12-17T22:40:37.385Z,73.85
2022-12-17T22:44:29.800Z,65.28
2022-12-17T22:44:42.778Z,71.30
2022-12-17T22:46:19.757Z,66.88
2022-12-17T22:48:47.259Z,64.82
2022-12-17T22:51:22.900Z,71.90
2022-12-17T22:54:08.302Z,62.47
2022-12-17T22:57:11.183Z,68.22
2022-12-17T22:59:26.068Z,60.65
2022-12-17T23:01:52.914Z,63.97
2022-12-17T23:04:19.857Z,66.88
2022-12-17T23:06:46.919Z,64.15
2022-12-17T23:09:19.019Z,71.00
2022-12-17T23:11:48.364Z,72.68
2022-12-17T23:14:16.210Z,70.68
2022-12-17T23:16:43.222Z,68.90
2022-12-17T23:19:10.255Z,73.00
2022-12-17T23:21:37.907Z,74.20
2022-12-17T23:24:05.530Z,71.53
2022-12-17T23:26:35.775Z,69.60
2022-12-17T23:29:08.419Z,70.60
2022-12-17T23:31:40.201Z,67.35
2022-12-17T23:34:08.837Z,61.33
2022-12-17T23:36:37.296Z,60.30
2022-12-17T23:39:04.957Z,63.00
2022-12-17T23:41:32.512Z,58.75
2022-12-17T23:44:00.268Z,61.45
2022-12-17T23:46:29.556Z,63.78
2022-12-17T23:48:56.803Z,62.45
2022-12-17T23:51:24.843Z,66.85
2022-12-17T23:53:52.209Z,68.13
2022-12-17T23:56:20.485Z,63.13
2022-12-17T23:58:48.367Z,60.38
